Time;durP1;ratioP1;P1;durP2;ratioP2;P2;SDS_P1;SDS_P2;PMS_P1;PMS_P2;Temp;Humidity;BMP_temperature;BMP_pressure;BME280_temperature;BME280_humidity;BME280_pressure;Samples;Min_cycle;Max_cycle;Signal;HPM_P1;HPM_P2
2023/11/19 00:01:32;;;;;;;1.10;0.93;;;13.00;99.90;;;;;;5072421;28;20174;-71
2023/11/19 00:03:58;;;;;;;1.57;1.00;;;13.00;99.90;;;;;;5072392;28;20409;-71
2023/11/19 00:06:25;;;;;;;1.00;0.90;;;13.00;99.90;;;;;;5072176;28;20683;-71
2023/11/19 00:08:50;;;;;;;3.47;1.10;;;12.90;99.90;;;;;;5072128;28;20255;-71
2023/11/19 00:11:16;;;;;;;0.80;0.70;;;13.00;99.90;;;;;;5072257;28;20495;-71
2023/11/19 00:13:42;;;;;;;4.20;1.17;;;13.00;99.90;;;;;;5072207;28;20170;-71
2023/11/19 00:16:09;;;;;;;2.30;1.10;;;13.00;99.90;;;;;;5072073;28;20173;-71
2023/11/19 00:18:36;;;;;;;3.10;1.10;;;13.00;99.90;;;;;;5072163;28;20366;-71
2023/11/19 00:21:02;;;;;;;0.80;0.60;;;12.90;99.90;;;;;;5072091;28;20420;-71
2023/11/19 00:23:27;;;;;;;1.27;1.00;;;13.00;99.90;;;;;;5054226;28;20416;-71
2023/11/19 00:25:53;;;;;;;0.97;0.70;;;13.00;99.90;;;;;;5066395;28;20414;-71
2023/11/19 00:28:19;;;;;;;4.67;0.90;;;13.00;99.90;;;;;;5071810;28;20830;-71
2023/11/19 00:30:44;;;;;;;1.33;0.83;;;13.00;99.90;;;;;;5071771;28;20158;-71
2023/11/19 00:33:10;;;;;;;1.20;0.70;;;13.00;99.90;;;;;;5071693;28;20205;-71
2023/11/19 00:35:35;;;;;;;0.90;0.60;;;13.00;99.90;;;;;;5071817;28;20219;-71
2023/11/19 00:38:02;;;;;;;3.80;1.37;;;13.00;99.90;;;;;;5072027;28;20240;-71
2023/11/19 00:40:28;;;;;;;0.90;0.60;;;13.00;99.90;;;;;;5071888;28;20653;-71
2023/11/19 00:42:54;;;;;;;0.80;0.70;;;13.00;99.90;;;;;;5071962;28;20453;-71
2023/11/19 00:45:19;;;;;;;3.53;0.87;;;13.10;99.90;;;;;;5071571;28;20405;-71
2023/11/19 00:47:45;;;;;;;0.80;0.70;;;13.10;99.90;;;;;;5071957;28;20166;-71
2023/11/19 00:50:11;;;;;;;0.90;0.77;;;13.10;99.90;;;;;;5071763;28;20202;-71
2023/11/19 00:52:37;;;;;;;1.67;0.60;;;13.20;99.90;;;;;;5071752;28;20656;-71
2023/11/19 00:55:04;;;;;;;0.80;0.60;;;13.20;99.90;;;;;;5053701;28;20407;-71
2023/11/19 00:57:30;;;;;;;0.90;0.70;;;13.10;99.90;;;;;;5071859;28;20421;-71
2023/11/19 00:59:55;;;;;;;1.20;0.60;;;13.20;99.90;;;;;;5053591;28;20456;-71
2023/11/19 01:02:21;;;;;;;3.00;0.70;;;13.20;99.90;;;;;;5071674;28;20517;-71
2023/11/19 01:04:46;;;;;;;0.80;0.53;;;13.20;99.90;;;;;;5075260;28;20162;-71
2023/11/19 01:07:12;;;;;;;1.40;0.70;;;13.30;99.90;;;;;;5075929;28;20178;-71
2023/11/19 01:09:38;;;;;;;1.17;0.67;;;13.30;99.90;;;;;;5075726;28;20600;-71
2023/11/19 01:12:04;;;;;;;0.80;0.60;;;13.40;99.90;;;;;;5075826;28;20591;-71
2023/11/19 01:14:30;;;;;;;1.00;0.63;;;13.30;99.90;;;;;;5075529;28;20515;-71
2023/11/19 01:16:55;;;;;;;2.23;0.80;;;13.30;99.90;;;;;;5075745;28;20403;-71
2023/11/19 01:19:22;;;;;;;1.03;0.60;;;13.30;99.90;;;;;;5075453;28;20417;-71
2023/11/19 01:21:51;;;;;;;0.97;0.60;;;13.30;99.90;;;;;;5075559;28;20166;-71
2023/11/19 01:24:16;;;;;;;1.23;0.80;;;13.30;99.90;;;;;;5075149;28;20404;-71
2023/11/19 01:26:45;;;;;;;0.80;0.70;;;13.20;99.90;;;;;;5075189;28;20826;-71
2023/11/19 01:29:13;;;;;;;1.40;0.90;;;13.20;99.90;;;;;;5075346;28;20821;-71
2023/11/19 01:31:42;;;;;;;1.00;0.80;;;13.20;99.90;;;;;;5075641;28;20914;-71
2023/11/19 01:34:08;;;;;;;1.37;0.90;;;13.20;99.90;;;;;;5074997;28;20745;-71
2023/11/19 01:36:34;;;;;;;2.27;0.90;;;13.30;99.90;;;;;;5075207;28;20403;-71
2023/11/19 01:38:59;;;;;;;0.90;0.80;;;13.30;99.90;;;;;;5075294;28;20193;-71
2023/11/19 01:41:25;;;;;;;1.20;1.10;;;13.20;99.90;;;;;;5057229;28;20174;-71
2023/11/19 01:43:50;;;;;;;0.80;0.70;;;13.30;99.90;;;;;;5057265;28;20174;-71
2023/11/19 01:46:16;;;;;;;2.13;1.10;;;13.40;99.90;;;;;;5074962;28;20174;-70
2023/11/19 01:48:44;;;;;;;1.80;0.90;;;13.40;99.90;;;;;;5074940;28;20202;-69
2023/11/19 01:51:11;;;;;;;1.13;1.03;;;13.40;99.90;;;;;;5074983;28;20245;-69
2023/11/19 01:53:38;;;;;;;3.30;2.50;;;13.30;99.90;;;;;;5074909;28;20428;-70
2023/11/19 01:56:08;;;;;;;1.37;1.10;;;13.40;99.90;;;;;;5074655;28;20403;-70
2023/11/19 01:58:35;;;;;;;1.40;1.10;;;13.40;99.90;;;;;;5074828;28;20416;-70
2023/11/19 02:01:03;;;;;;;4.40;1.17;;;13.40;99.90;;;;;;5074754;28;21089;-70
2023/11/19 02:03:31;;;;;;;3.37;1.27;;;13.40;99.90;;;;;;5074811;28;20412;-70
2023/11/19 02:05:57;;;;;;;2.10;0.93;;;13.50;99.90;;;;;;5074648;28;20410;-70
2023/11/19 02:08:22;;;;;;;1.47;1.00;;;13.50;99.90;;;;;;5074594;28;20531;-69
2023/11/19 02:10:48;;;;;;;1.30;1.20;;;13.50;99.90;;;;;;5074684;28;20902;-70
2023/11/19 02:13:13;;;;;;;1.40;1.10;;;13.50;99.90;;;;;;5074238;28;20154;-70
2023/11/19 02:15:40;;;;;;;3.20;1.00;;;13.50;99.90;;;;;;5073428;28;20645;-70
2023/11/19 02:18:23;;;;;;;7.03;1.50;;;13.60;99.90;;;;;;5074905;28;20623;-70
2023/11/19 02:20:50;;;;;;;2.33;1.13;;;13.60;99.90;;;;;;5074574;28;20909;-70
2023/11/19 02:23:16;;;;;;;2.70;1.23;;;13.50;99.90;;;;;;5074190;28;20397;-70
2023/11/19 02:25:44;;;;;;;2.93;1.30;;;13.60;99.90;;;;;;5074167;28;20401;-70
2023/11/19 02:28:11;;;;;;;9.17;2.20;;;13.50;99.90;;;;;;5074320;28;20162;-69
2023/11/19 02:30:37;;;;;;;2.40;1.63;;;13.60;99.90;;;;;;5074219;28;20791;-70
2023/11/19 02:33:05;;;;;;;3.33;1.43;;;13.60;99.90;;;;;;5074280;28;20411;-70
2023/11/19 02:35:32;;;;;;;1.53;1.43;;;13.70;99.90;;;;;;5074048;28;20454;-70
2023/11/19 02:38:03;;;;;;;3.47;1.20;;;13.60;99.90;;;;;;5074059;28;20404;-70
2023/11/19 02:40:29;;;;;;;3.43;1.20;;;13.70;99.90;;;;;;5074312;28;20931;-70
2023/11/19 02:42:55;;;;;;;3.80;1.60;;;13.60;99.90;;;;;;5074087;28;20408;-70
2023/11/19 02:45:25;;;;;;;4.90;2.13;;;13.50;99.90;;;;;;5073838;28;20661;-70
2023/11/19 02:47:51;;;;;;;4.80;1.80;;;13.40;99.90;;;;;;5074013;28;20400;-70
2023/11/19 02:50:24;;;;;;;7.20;2.80;;;13.40;99.90;;;;;;5073771;28;20452;-70
2023/11/19 02:52:51;;;;;;;2.90;1.20;;;13.40;99.90;;;;;;5055881;28;20432;-70
2023/11/19 02:55:17;;;;;;;7.43;1.83;;;13.30;99.90;;;;;;5073696;28;20488;-70
2023/11/19 02:57:48;;;;;;;4.80;1.63;;;13.20;99.90;;;;;;5073813;28;20412;-70
2023/11/19 03:00:18;;;;;;;7.33;1.70;;;13.10;99.90;;;;;;5073689;28;20417;-70
2023/11/19 03:02:46;;;;;;;3.73;1.43;;;13.10;99.90;;;;;;5073707;28;20444;-70
2023/11/19 03:05:16;;;;;;;5.07;1.50;;;13.10;99.90;;;;;;5073578;28;20432;-70
2023/11/19 03:07:43;;;;;;;5.13;1.50;;;13.00;99.90;;;;;;5073634;28;20439;-70
2023/11/19 03:10:15;;;;;;;3.00;1.10;;;13.00;99.90;;;;;;5073461;28;20574;-70
2023/11/19 03:12:42;;;;;;;3.77;1.70;;;13.00;99.90;;;;;;5073507;28;20446;-69
2023/11/19 03:15:14;;;;;;;5.90;1.77;;;13.00;99.90;;;;;;5073321;28;20504;-70
2023/11/19 03:17:41;;;;;;;2.10;1.40;;;13.00;99.90;;;;;;5073517;28;20399;-69
2023/11/19 03:20:14;;;;;;;3.13;1.63;;;13.00;99.90;;;;;;5073269;28;20519;-70
2023/11/19 03:22:41;;;;;;;2.33;1.60;;;13.10;99.90;;;;;;5073359;28;20424;-69
2023/11/19 03:25:08;;;;;;;4.43;2.10;;;13.10;99.90;;;;;;5055033;28;20446;-70
2023/11/19 03:27:35;;;;;;;7.30;3.03;;;13.10;99.90;;;;;;5073264;28;20450;-70
2023/11/19 03:30:01;;;;;;;3.60;1.50;;;13.20;99.90;;;;;;5072986;28;20490;-70
2023/11/19 03:32:27;;;;;;;7.20;1.83;;;13.20;99.90;;;;;;5073114;28;20416;-69
2023/11/19 03:34:52;;;;;;;3.23;1.63;;;13.20;99.90;;;;;;5072729;28;20457;-70
2023/11/19 03:37:19;;;;;;;5.80;1.60;;;13.30;99.90;;;;;;5073092;28;20635;-70
2023/11/19 03:39:44;;;;;;;16.63;1.77;;;13.30;99.90;;;;;;5072856;28;20182;-70
2023/11/19 03:42:13;;;;;;;5.50;1.77;;;13.40;99.90;;;;;;5072881;28;20401;-70
2023/11/19 03:44:38;;;;;;;7.67;2.20;;;13.50;99.90;;;;;;5072759;28;20162;-69
2023/11/19 03:47:04;;;;;;;4.17;2.13;;;13.50;99.90;;;;;;5072875;28;20409;-69
2023/11/19 03:49:29;;;;;;;8.90;2.30;;;13.50;99.90;;;;;;5072604;28;20594;-69
2023/11/19 03:51:55;;;;;;;7.57;1.93;;;13.50;99.90;;;;;;5072542;28;20162;-69
2023/11/19 03:54:23;;;;;;;3.07;1.43;;;13.40;99.90;;;;;;5054651;28;20170;-69
2023/11/19 03:56:48;;;;;;;5.40;2.00;;;13.30;99.90;;;;;;5072608;28;20243;-69
2023/11/19 03:59:15;;;;;;;12.00;2.00;;;13.30;99.90;;;;;;5072605;28;20848;-69
2023/11/19 04:01:41;;;;;;;5.27;1.53;;;13.30;99.90;;;;;;5072288;28;20283;-69
2023/11/19 04:04:06;;;;;;;5.17;1.70;;;13.20;99.90;;;;;;5072512;28;20550;-69
2023/11/19 04:06:32;;;;;;;4.03;2.00;;;13.20;99.90;;;;;;5054351;28;20444;-69
2023/11/19 04:08:57;;;;;;;8.20;2.33;;;13.30;99.90;;;;;;5072295;28;20213;-69
2023/11/19 04:11:23;;;;;;;7.73;1.77;;;13.20;99.90;;;;;;5072366;28;20154;-69
2023/11/19 04:13:48;;;;;;;5.73;1.80;;;13.20;99.90;;;;;;5072354;28;20208;-69
2023/11/19 04:16:14;;;;;;;3.20;1.60;;;13.20;99.90;;;;;;5072156;28;20361;-69
2023/11/19 04:18:40;;;;;;;11.30;2.20;;;13.20;99.90;;;;;;5072171;28;20190;-69
2023/11/19 04:21:07;;;;;;;2.33;1.50;;;13.20;99.90;;;;;;5071937;28;20407;-69
2023/11/19 04:23:32;;;;;;;7.60;1.47;;;13.20;99.90;;;;;;5072060;28;20175;-69
2023/11/19 04:25:58;;;;;;;8.57;3.80;;;13.20;99.90;;;;;;5071734;28;20462;-70
2023/11/19 04:28:26;;;;;;;10.57;2.80;;;13.10;99.90;;;;;;5071858;28;20540;-69
2023/11/19 04:30:52;;;;;;;10.70;2.37;;;13.20;99.90;;;;;;5072107;28;20245;-69
2023/11/19 04:33:17;;;;;;;3.93;2.20;;;13.10;99.90;;;;;;5072084;28;20433;-69
2023/11/19 04:35:43;;;;;;;9.90;2.60;;;13.20;99.90;;;;;;5071757;28;20177;-69
2023/11/19 04:38:09;;;;;;;4.70;2.37;;;13.20;99.90;;;;;;5071635;28;20664;-69
2023/11/19 04:40:34;;;;;;;13.93;2.70;;;13.30;99.90;;;;;;5071862;28;20370;-69
2023/11/19 04:43:00;;;;;;;8.83;2.40;;;13.30;99.90;;;;;;5071976;28;20236;-69
2023/11/19 04:45:25;;;;;;;12.80;3.07;;;13.30;99.90;;;;;;5053866;28;20162;-70
2023/11/19 04:47:51;;;;;;;9.63;2.57;;;13.30;99.90;;;;;;5071867;28;20166;-69
2023/11/19 04:50:17;;;;;;;7.80;2.07;;;13.30;99.90;;;;;;5071785;28;20681;-69
2023/11/19 04:52:45;;;;;;;4.73;1.40;;;13.20;99.90;;;;;;5071757;28;20188;-69
2023/11/19 04:55:11;;;;;;;6.47;2.83;;;13.20;99.90;;;;;;5071599;28;20170;-69
2023/11/19 04:57:37;;;;;;;13.23;2.97;;;13.10;99.90;;;;;;5071868;28;20454;-69
2023/11/19 05:00:04;;;;;;;5.27;1.87;;;13.10;99.90;;;;;;5071585;28;20432;-69
2023/11/19 05:02:30;;;;;;;8.63;2.80;;;13.00;99.90;;;;;;5071770;28;20162;-69
2023/11/19 05:04:56;;;;;;;15.63;2.30;;;13.00;99.90;;;;;;5071731;28;20423;-69
2023/11/19 05:07:21;;;;;;;6.23;2.80;;;12.90;99.90;;;;;;5071732;28;20163;-69
2023/11/19 05:09:47;;;;;;;5.73;2.43;;;12.90;99.90;;;;;;5071604;28;20484;-69
2023/11/19 05:12:12;;;;;;;11.77;2.17;;;12.80;99.90;;;;;;5053591;28;20166;-69
2023/11/19 05:14:38;;;;;;;17.77;6.50;;;12.80;99.90;;;;;;5071261;28;20170;-69
2023/11/19 05:17:04;;;;;;;13.07;3.50;;;12.80;99.90;;;;;;5071505;28;20170;-69
2023/11/19 05:19:29;;;;;;;4.70;2.20;;;12.70;99.90;;;;;;5071547;28;20213;-69
2023/11/19 05:21:55;;;;;;;9.23;2.90;;;12.70;99.90;;;;;;5071580;28;20228;-69
2023/11/19 05:24:20;;;;;;;11.90;2.37;;;12.70;99.90;;;;;;5071242;28;20174;-69
2023/11/19 05:26:46;;;;;;;5.83;2.10;;;12.70;99.90;;;;;;5071462;28;20178;-69
2023/11/19 05:29:12;;;;;;;9.53;2.37;;;12.70;99.90;;;;;;5071451;28;20193;-69
2023/11/19 05:31:38;;;;;;;3.80;1.53;;;12.60;99.90;;;;;;5071484;28;20906;-69
2023/11/19 05:34:04;;;;;;;14.70;2.47;;;12.60;99.90;;;;;;5071439;28;20537;-69
2023/11/19 05:36:29;;;;;;;6.50;1.77;;;12.60;99.90;;;;;;5071522;28;20672;-69
2023/11/19 05:38:55;;;;;;;6.63;3.20;;;12.60;99.90;;;;;;5053308;28;20194;-69
2023/11/19 05:41:21;;;;;;;7.10;1.63;;;12.60;99.90;;;;;;5071363;28;20170;-69
2023/11/19 05:43:46;;;;;;;2.87;1.43;;;12.50;99.90;;;;;;5071307;28;20166;-69
2023/11/19 05:46:13;;;;;;;15.13;2.70;;;12.60;99.90;;;;;;5071219;28;20206;-69
2023/11/19 05:48:39;;;;;;;4.93;2.40;;;12.50;99.90;;;;;;5071224;28;20198;-69
2023/11/19 05:51:05;;;;;;;10.83;2.10;;;12.50;99.90;;;;;;5073656;28;20458;-69
2023/11/19 05:53:31;;;;;;;8.13;2.73;;;12.50;99.90;;;;;;5074782;28;20428;-69
2023/11/19 05:55:57;;;;;;;12.83;3.27;;;12.40;99.90;;;;;;5056847;28;20412;-69
2023/11/19 05:58:28;;;;;;;13.43;2.73;;;12.40;99.90;;;;;;5056859;28;20397;-69
2023/11/19 06:00:54;;;;;;;10.37;2.13;;;12.40;99.90;;;;;;5074852;28;20739;-69
2023/11/19 06:03:21;;;;;;;8.93;2.10;;;12.40;99.90;;;;;;5074842;28;20436;-69
2023/11/19 06:05:47;;;;;;;9.27;2.20;;;12.40;99.90;;;;;;5074635;28;20428;-69
2023/11/19 06:08:13;;;;;;;8.63;2.73;;;12.40;99.90;;;;;;5074625;28;20480;-69
2023/11/19 06:10:39;;;;;;;11.03;2.60;;;12.40;99.90;;;;;;5074576;28;20511;-69
2023/11/19 06:13:05;;;;;;;8.90;2.63;;;12.30;99.90;;;;;;5074645;28;20216;-69
2023/11/19 06:15:32;;;;;;;7.43;2.83;;;12.30;99.90;;;;;;5074460;28;20397;-69
2023/11/19 06:18:01;;;;;;;14.20;3.50;;;12.30;99.90;;;;;;5074480;28;20215;-69
2023/11/19 06:20:28;;;;;;;8.77;3.87;;;12.30;99.90;;;;;;5074337;28;20827;-69
2023/11/19 06:22:54;;;;;;;10.70;2.50;;;12.40;99.90;;;;;;5074336;28;20439;-69
2023/11/19 06:25:19;;;;;;;12.30;3.00;;;12.30;99.90;;;;;;5074086;28;20459;-69
2023/11/19 06:27:45;;;;;;;11.30;3.57;;;12.40;99.90;;;;;;5074347;28;20253;-69
2023/11/19 06:30:11;;;;;;;12.50;3.03;;;12.30;99.90;;;;;;5074213;28;20194;-69
2023/11/19 06:32:37;;;;;;;7.30;1.90;;;12.30;99.90;;;;;;5074377;28;20219;-69
2023/11/19 06:35:04;;;;;;;5.80;2.73;;;12.30;99.90;;;;;;5073919;28;20967;-69
2023/11/19 06:37:30;;;;;;;6.90;3.03;;;12.30;99.90;;;;;;5074139;28;20296;-69
2023/11/19 06:39:55;;;;;;;5.90;3.00;;;12.30;99.90;;;;;;5074093;28;20478;-69
2023/11/19 06:42:21;;;;;;;12.87;3.20;;;12.20;99.90;;;;;;5056303;28;20177;-69
2023/11/19 06:44:46;;;;;;;6.13;2.23;;;12.20;99.90;;;;;;5073967;28;20637;-69
2023/11/19 06:47:12;;;;;;;10.00;2.83;;;12.10;99.90;;;;;;5074062;28;20215;-69
2023/11/19 06:49:37;;;;;;;8.20;3.47;;;12.20;99.90;;;;;;5056003;28;20693;-69
2023/11/19 06:52:04;;;;;;;10.70;2.07;;;12.10;99.90;;;;;;5073804;28;20173;-69
2023/11/19 06:54:30;;;;;;;7.40;2.50;;;12.20;99.90;;;;;;5073764;28;20197;-69
2023/11/19 06:56:57;;;;;;;7.60;2.77;;;12.20;99.90;;;;;;5073805;28;20404;-69
2023/11/19 06:59:22;;;;;;;6.70;2.43;;;12.10;99.90;;;;;;5073685;28;20423;-69
2023/11/19 07:01:48;;;;;;;11.33;2.47;;;12.20;99.90;;;;;;5073427;28;20413;-69
2023/11/19 07:04:14;;;;;;;14.20;2.20;;;12.10;99.90;;;;;;5073706;28;20245;-69
2023/11/19 07:06:42;;;;;;;11.70;3.47;;;12.10;99.90;;;;;;5073453;28;20177;-69
2023/11/19 07:09:11;;;;;;;13.13;2.73;;;12.10;99.90;;;;;;5073158;28;20228;-69
2023/11/19 07:11:38;;;;;;;8.80;3.27;;;12.20;99.90;;;;;;5073133;28;20760;-69
2023/11/19 07:14:06;;;;;;;8.37;3.17;;;12.20;99.90;;;;;;5073459;28;20838;-69
2023/11/19 07:16:32;;;;;;;8.73;2.63;;;12.20;99.90;;;;;;5073331;28;20404;-69
2023/11/19 07:18:59;;;;;;;13.73;2.60;;;12.20;99.90;;;;;;5073424;28;20424;-69
2023/11/19 07:21:25;;;;;;;17.50;3.40;;;12.20;99.90;;;;;;5073369;28;20404;-69
2023/11/19 07:23:51;;;;;;;13.90;2.30;;;12.20;99.90;;;;;;5072992;28;20933;-69
2023/11/19 07:26:17;;;;;;;12.57;2.43;;;12.30;99.90;;;;;;5073003;28;20167;-69
2023/11/19 07:28:44;;;;;;;4.40;2.57;;;12.30;99.90;;;;;;5072718;28;20577;-69
2023/11/19 07:31:10;;;;;;;7.53;2.90;;;12.40;99.90;;;;;;5055228;28;20171;-69
2023/11/19 07:33:36;;;;;;;10.03;2.23;;;12.50;99.90;;;;;;5073176;28;20503;-69
2023/11/19 07:36:02;;;;;;;10.63;2.77;;;12.50;99.90;;;;;;5072891;28;20453;-69
2023/11/19 07:38:28;;;;;;;11.23;3.20;;;12.60;99.90;;;;;;5072514;28;20499;-69
2023/11/19 07:40:54;;;;;;;12.20;3.17;;;12.70;99.90;;;;;;5072491;28;20189;-69
2023/11/19 07:43:19;;;;;;;20.47;2.77;;;12.70;99.90;;;;;;5072872;28;20177;-69
2023/11/19 07:45:45;;;;;;;9.33;2.90;;;12.80;99.90;;;;;;5072697;28;20173;-69
2023/11/19 07:48:13;;;;;;;11.30;3.33;;;12.70;99.90;;;;;;5072885;28;20159;-69
2023/11/19 07:50:40;;;;;;;12.13;2.77;;;12.80;99.90;;;;;;5072458;28;20424;-69
2023/11/19 07:53:09;;;;;;;7.93;2.63;;;12.90;99.90;;;;;;5072389;28;20425;-69
2023/11/19 07:55:34;;;;;;;12.03;3.53;;;13.10;99.90;;;;;;5072458;28;20397;-69
2023/11/19 07:58:01;;;;;;;20.03;3.30;;;13.40;99.90;;;;;;5072668;28;20958;-69
2023/11/19 08:00:26;;;;;;;15.00;2.77;;;13.60;99.90;;;;;;5072361;28;20193;-69
2023/11/19 08:02:52;;;;;;;12.43;2.30;;;13.70;99.90;;;;;;5072511;28;20740;-69
2023/11/19 08:05:17;;;;;;;13.30;2.97;;;13.60;99.90;;;;;;5072324;28;20191;-69
2023/11/19 08:07:43;;;;;;;8.53;2.60;;;13.90;99.90;;;;;;5072543;28;20174;-69
2023/11/19 08:10:11;;;;;;;16.33;3.00;;;14.60;99.90;;;;;;5072215;28;20704;-69
2023/11/19 08:12:37;;;;;;;9.20;2.50;;;15.50;99.90;;;;;;5071098;28;20695;-69
2023/11/19 08:15:04;;;;;;;5.43;2.40;;;16.40;99.90;;;;;;5072136;28;20413;-69
2023/11/19 08:17:30;;;;;;;4.70;2.70;;;17.20;99.90;;;;;;5072313;28;20938;-69
2023/11/19 08:19:55;;;;;;;16.13;3.30;;;18.00;99.90;;;;;;5072115;28;20467;-69
2023/11/19 08:22:22;;;;;;;5.93;2.90;;;18.60;99.90;;;;;;5072181;28;20162;-69
2023/11/19 08:24:48;;;;;;;13.93;6.13;;;18.90;99.90;;;;;;5072053;28;20199;-69
2023/11/19 08:27:14;;;;;;;8.47;3.63;;;19.20;99.90;;;;;;5072157;28;20436;-69
2023/11/19 08:29:40;;;;;;;8.30;2.97;;;19.00;99.90;;;;;;5054052;28;20827;-69
2023/11/19 08:32:06;;;;;;;9.67;2.70;;;18.90;99.90;;;;;;5072099;28;20158;-69
2023/11/19 08:34:31;;;;;;;8.20;2.47;;;19.00;99.90;;;;;;5053895;28;20451;-69
2023/11/19 08:36:57;;;;;;;8.27;2.90;;;19.50;99.90;;;;;;5072046;28;20429;-69
2023/11/19 08:39:22;;;;;;;17.53;3.47;;;19.90;99.90;;;;;;5071842;28;20669;-69
2023/11/19 08:41:48;;;;;;;13.10;3.00;;;20.00;99.90;;;;;;5071884;28;20228;-69
2023/11/19 08:44:14;;;;;;;10.23;2.40;;;20.50;99.90;;;;;;5071993;28;20645;-69
2023/11/19 08:46:45;;;;;;;5.00;2.83;;;20.80;99.90;;;;;;5071691;28;20209;-69
2023/11/19 08:49:11;;;;;;;7.70;3.00;;;20.90;99.90;;;;;;5071624;28;20208;-69
2023/11/19 08:51:36;;;;;;;7.80;2.47;;;21.00;99.90;;;;;;5071825;28;20493;-69
2023/11/19 08:54:02;;;;;;;6.83;2.67;;;21.30;99.90;;;;;;5071698;28;20723;-69
2023/11/19 08:56:32;;;;;;;13.00;3.07;;;21.50;94.90;;;;;;5071632;28;20188;-69
2023/11/19 08:58:58;;;;;;;6.73;3.03;;;21.60;93.50;;;;;;5071911;28;20286;-69
2023/11/19 09:01:24;;;;;;;8.83;3.20;;;22.00;96.10;;;;;;5071716;28;20408;-69
2023/11/19 09:03:50;;;;;;;6.97;2.90;;;22.40;84.90;;;;;;5071612;28;20166;-69
2023/11/19 09:06:15;;;;;;;10.33;2.67;;;22.40;80.40;;;;;;5071430;28;20411;-69
2023/11/19 09:08:42;;;;;;;10.47;3.80;;;22.40;80.60;;;;;;5071530;28;20201;-69
2023/11/19 09:11:11;;;;;;;15.50;7.73;;;22.70;74.70;;;;;;5071589;28;20594;-69
2023/11/19 09:13:37;;;;;;;9.20;3.20;;;23.30;81.10;;;;;;5071697;28;20419;-69
2023/11/19 09:16:05;;;;;;;7.27;3.00;;;23.50;64.90;;;;;;5071399;28;20405;-69
2023/11/19 09:18:32;;;;;;;11.27;3.50;;;22.90;62.10;;;;;;5071408;28;20188;-69
2023/11/19 09:20:57;;;;;;;6.13;3.03;;;23.30;62.60;;;;;;5071458;28;20488;-69
2023/11/19 09:23:25;;;;;;;10.47;4.23;;;23.30;59.30;;;;;;5071540;28;20838;-69
2023/11/19 09:25:50;;;;;;;13.13;4.13;;;23.40;60.00;;;;;;5074863;28;20189;-69
2023/11/19 09:28:16;;;;;;;8.87;4.30;;;23.60;59.70;;;;;;5075351;28;20447;-69
2023/11/19 09:30:41;;;;;;;8.70;2.97;;;23.40;58.00;;;;;;5075349;28;20171;-69
2023/11/19 09:33:07;;;;;;;7.67;3.23;;;23.60;60.20;;;;;;5075317;28;20162;-68
2023/11/19 09:35:32;;;;;;;9.60;2.83;;;24.00;58.90;;;;;;5075244;28;20584;-68
2023/11/19 09:37:59;;;;;;;7.93;3.10;;;23.20;56.10;;;;;;5075338;28;20629;-68
2023/11/19 09:40:25;;;;;;;9.70;3.03;;;23.30;60.80;;;;;;5075205;28;20232;-68
2023/11/19 09:42:50;;;;;;;6.90;3.63;;;23.10;58.80;;;;;;5057328;28;20483;-67
2023/11/19 09:45:20;;;;;;;8.50;3.00;;;22.60;57.90;;;;;;5075137;28;20499;-68
2023/11/19 09:47:46;;;;;;;14.17;3.80;;;21.90;60.40;;;;;;5075061;28;20188;-68
2023/11/19 09:50:19;;;;;;;7.40;2.43;;;21.80;66.30;;;;;;5057156;28;20536;-68
2023/11/19 09:52:46;;;;;;;5.93;3.00;;;21.70;70.00;;;;;;5074978;28;20855;-69
2023/11/19 09:55:11;;;;;;;14.00;2.70;;;22.20;78.00;;;;;;5074814;28;20397;-70
2023/11/19 09:57:43;;;;;;;4.43;2.40;;;22.30;68.60;;;;;;5074990;28;20961;-69
2023/11/19 10:00:12;;;;;;;6.17;2.50;;;22.40;69.80;;;;;;5074536;28;20222;-70
2023/11/19 10:02:39;;;;;;;13.53;4.03;;;23.10;64.50;;;;;;5056854;28;20466;-69
2023/11/19 10:05:06;;;;;;;7.30;2.40;;;23.20;59.70;;;;;;5074746;28;20477;-70
2023/11/19 10:07:33;;;;;;;9.70;2.80;;;23.80;59.60;;;;;;5074764;28;20497;-69
2023/11/19 10:10:06;;;;;;;9.57;3.07;;;24.20;56.60;;;;;;5056576;28;20564;-70
2023/11/19 10:12:32;;;;;;;10.57;3.27;;;23.90;53.40;;;;;;5074568;28;20393;-70
2023/11/19 10:14:58;;;;;;;12.50;3.27;;;24.70;54.70;;;;;;5074391;28;20458;-70
2023/11/19 10:17:34;;;;;;;11.80;3.90;;;24.90;52.10;;;;;;5056625;28;20206;-70
2023/11/19 10:20:01;;;;;;;5.40;2.90;;;24.60;52.00;;;;;;5056401;28;20497;-69
2023/11/19 10:22:27;;;;;;;10.07;3.00;;;24.60;52.60;;;;;;5074398;28;20504;-70
2023/11/19 10:24:54;;;;;;;7.70;3.30;;;24.40;51.70;;;;;;5056383;28;20500;-70
2023/11/19 10:27:19;;;;;;;7.40;2.97;;;24.80;52.80;;;;;;5074360;28;21180;-70
2023/11/19 10:29:46;;;;;;;7.40;2.77;;;24.90;52.10;;;;;;5074212;28;20466;-70
2023/11/19 10:32:13;;;;;;;9.83;3.57;;;25.40;51.10;;;;;;5073893;28;20169;-70
2023/11/19 10:34:39;;;;;;;6.97;3.17;;;25.60;49.40;;;;;;5074060;28;20895;-70
2023/11/19 10:37:05;;;;;;;12.50;3.17;;;25.70;49.10;;;;;;5073566;28;20462;-70
2023/11/19 10:39:56;;;;;;;10.13;3.23;;;25.40;48.30;;;;;;5074042;28;20189;-69
2023/11/19 10:42:22;;;;;;;13.13;4.00;;;24.30;48.70;;;;;;5074063;28;20473;-70
2023/11/19 10:44:48;;;;;;;9.33;3.10;;;22.90;49.00;;;;;;5073947;28;21069;-70
2023/11/19 10:47:19;;;;;;;6.53;2.80;;;22.70;51.50;;;;;;5074185;28;20401;-70
2023/11/19 10:49:48;;;;;;;9.40;2.53;;;21.80;51.60;;;;;;5073812;28;20233;-70
2023/11/19 10:52:19;;;;;;;14.73;3.47;;;20.60;53.60;;;;;;5073886;28;20515;-70
2023/11/19 10:54:49;;;;;;;8.40;3.00;;;19.90;62.40;;;;;;5055799;28;20423;-69
2023/11/19 10:57:19;;;;;;;6.97;2.60;;;19.60;89.80;;;;;;5073898;28;20416;-69
2023/11/19 10:59:46;;;;;;;7.80;2.47;;;19.50;98.40;;;;;;5073841;28;20478;-69
2023/11/19 11:02:19;;;;;;;13.87;2.60;;;19.10;99.60;;;;;;5055807;28;20408;-69
2023/11/19 11:04:47;;;;;;;13.10;2.70;;;18.50;99.90;;;;;;5073321;28;20405;-69
2023/11/19 11:07:15;;;;;;;11.67;2.67;;;17.80;99.90;;;;;;5073621;28;20903;-69
2023/11/19 11:09:41;;;;;;;7.50;2.90;;;17.30;99.90;;;;;;5073386;28;20456;-70
2023/11/19 11:12:09;;;;;;;5.07;2.37;;;16.90;99.90;;;;;;5052644;28;20420;-68
2023/11/19 11:14:40;;;;;;;8.70;2.47;;;17.00;99.90;;;;;;5061896;28;20406;-69
2023/11/19 11:17:07;;;;;;;5.83;2.77;;;18.10;99.90;;;;;;5062945;28;21022;-68
2023/11/19 11:19:34;;;;;;;9.40;3.00;;;19.10;99.90;;;;;;5063823;28;20440;-69
2023/11/19 11:22:03;;;;;;;13.53;3.00;;;19.40;99.90;;;;;;5062100;28;20969;-69
2023/11/19 11:24:41;;;;;;;10.33;2.33;;;19.60;99.90;;;;;;5062231;28;20510;-69
2023/11/19 11:27:45;;;;;;;9.27;2.37;;;19.30;99.90;;;;;;5046301;28;20433;-69
2023/11/19 11:30:23;;;;;;;5.43;3.23;;;18.60;99.90;;;;;;5054988;28;20846;-69
2023/11/19 11:33:04;;;;;;;17.93;7.97;;;19.30;99.90;;;;;;5065490;28;20412;-69
2023/11/19 11:35:55;;;;;;;8.03;3.03;;;20.00;99.90;;;;;;5071688;28;20417;-69
2023/11/19 11:38:23;;;;;;;11.57;3.00;;;19.70;95.30;;;;;;5058077;28;20415;-69
2023/11/19 11:41:21;;;;;;;6.73;2.60;;;19.00;99.90;;;;;;5066951;28;20445;-68
2023/11/19 11:43:52;;;;;;;5.77;2.40;;;18.00;99.90;;;;;;5065906;28;20810;-68
2023/11/19 11:46:33;;;;;;;6.10;3.40;;;18.10;99.90;;;;;;5067149;28;20421;-69
2023/11/19 11:49:06;;;;;;;6.70;2.07;;;18.30;99.90;;;;;;5071362;28;20452;-69
2023/11/19 11:51:48;;;;;;;6.77;2.53;;;18.20;99.90;;;;;;5072363;28;20455;-69
2023/11/19 11:54:19;;;;;;;9.70;2.63;;;17.80;99.90;;;;;;5072606;28;20458;-69
2023/11/19 11:57:08;;;;;;;6.90;2.40;;;17.60;99.90;;;;;;5054425;28;20405;-68
2023/11/19 11:59:50;;;;;;;9.50;1.97;;;18.00;99.90;;;;;;5054537;28;20965;-68
2023/11/19 12:02:21;;;;;;;9.60;2.73;;;18.80;99.90;;;;;;5072662;28;20397;-69
2023/11/19 12:04:48;;;;;;;10.03;2.50;;;19.60;99.90;;;;;;5072398;28;20396;-69
2023/11/19 12:07:24;;;;;;;2.33;1.50;;;19.70;99.90;;;;;;5072429;28;20397;-69
2023/11/19 12:10:07;;;;;;;8.20;1.90;;;20.10;99.90;;;;;;5072269;28;20483;-68
2023/11/19 12:12:33;;;;;;;7.53;2.40;;;20.20;99.20;;;;;;5072406;28;20433;-69
2023/11/19 12:14:58;;;;;;;6.80;2.57;;;20.40;98.10;;;;;;5072090;28;20404;-69
2023/11/19 12:17:50;;;;;;;14.33;3.20;;;21.00;99.90;;;;;;5072280;28;20407;-69
2023/11/19 12:20:23;;;;;;;10.03;2.30;;;20.30;93.90;;;;;;5067671;28;20205;-69
2023/11/19 12:22:50;;;;;;;7.07;2.60;;;20.10;97.40;;;;;;5072236;28;20400;-69
2023/11/19 12:25:17;;;;;;;8.30;3.37;;;19.40;99.90;;;;;;5072016;28;20845;-69
2023/11/19 12:27:44;;;;;;;8.70;2.23;;;19.30;99.90;;;;;;5072122;28;20407;-69
2023/11/19 12:30:11;;;;;;;8.10;2.50;;;19.00;99.90;;;;;;5071822;28;20527;-68
2023/11/19 12:32:44;;;;;;;10.47;2.50;;;18.50;99.90;;;;;;5054186;28;20393;-68
2023/11/19 12:35:13;;;;;;;5.67;2.20;;;17.90;99.90;;;;;;5053812;28;20774;-68
2023/11/19 12:37:46;;;;;;;10.80;1.90;;;17.60;99.90;;;;;;5072036;28;20825;-68
2023/11/19 12:40:24;;;;;;;10.37;3.10;;;17.30;99.90;;;;;;5072204;28;20949;-68
2023/11/19 12:42:55;;;;;;;2.77;1.90;;;16.90;99.90;;;;;;5072424;28;20853;-68
2023/11/19 12:45:23;;;;;;;5.03;2.53;;;16.50;99.90;;;;;;5071747;28;20411;-68